Time;durP1;ratioP1;P1;durP2;ratioP2;P2;SDS_P1;SDS_P2;PMS_P1;PMS_P2;Temp;Humidity;BMP_temperature;BMP_pressure;BME280_temperature;BME280_humidity;BME280_pressure;Samples;Min_cycle;Max_cycle;Signal;HPM_P1;HPM_P2
2023/01/11 00:01:58;;;;;;;;;;;;;;;25.12;33.48;94499.53;5006159;28;1671;-76
2023/01/11 00:04:28;;;;;;;;;;;;;;;25.11;33.49;94498.72;4988705;28;1709;-78
2023/01/11 00:06:54;;;;;;;;;;;;;;;25.11;33.63;94497.91;4995443;28;1903;-78
2023/01/11 00:09:19;;;;;;;;;;;;;;;25.09;33.85;94497.34;4995209;28;1588;-76
2023/01/11 00:11:45;;;;;;;;;;;;;;;25.10;33.55;94502.47;4997261;28;1730;-75
2023/01/11 00:14:10;;;;;;;;;;;;;;;25.12;33.64;94510.25;5003897;28;1513;-80
2023/01/11 00:16:35;;;;;;;;;;;;;;;25.10;33.44;94513.19;4986560;28;1495;-75
2023/01/11 00:19:00;;;;;;;;;;;;;;;25.11;33.80;94517.50;4995270;28;1707;-76
2023/01/11 00:21:26;;;;;;;;;;;;;;;25.12;33.56;94523.69;4990236;28;1464;-76
2023/01/11 00:23:51;;;;;;;;;;;;;;;25.11;33.83;94516.69;4992968;28;1387;-77
2023/01/11 00:26:16;;;;;;;;;;;;;;;25.09;33.54;94514.25;4991271;28;1957;-78
2023/01/11 00:28:42;;;;;;;;;;;;;;;25.09;33.95;94522.28;4994026;28;1605;-77
2023/01/11 00:31:07;;;;;;;;;;;;;;;25.09;33.87;94522.28;5003637;28;1741;-77
2023/01/11 00:33:32;;;;;;;;;;;;;;;25.10;33.97;94517.72;5001065;28;1662;-77
2023/01/11 00:35:58;;;;;;;;;;;;;;;25.10;33.90;94517.72;5001489;28;1750;-76
2023/01/11 00:49:18;;;;;;;;;;;;;;;25.09;33.96;94526.84;4998144;28;1745;-76
2023/01/11 00:51:44;;;;;;;;;;;;;;;25.09;34.06;94529.53;4995393;28;1565;-76
2023/01/11 00:54:09;;;;;;;;;;;;;;;25.10;34.08;94532.00;4993382;28;1474;-77
2023/01/11 00:56:34;;;;;;;;;;;;;;;25.10;34.09;94536.53;4995140;28;1466;-77
2023/01/11 00:59:00;;;;;;;;;;;;;;;25.09;34.09;94540.28;4993856;28;1705;-77
2023/01/11 01:01:25;;;;;;;;;;;;;;;25.10;34.17;94537.34;4982938;28;1519;-77
2023/01/11 01:03:51;;;;;;;;;;;;;;;25.10;34.04;94531.16;5004381;28;1503;-77
2023/01/11 01:06:16;;;;;;;;;;;;;;;25.11;34.22;94530.13;5000423;28;1961;-77
2023/01/11 01:08:41;;;;;;;;;;;;;;;25.10;33.98;94531.16;4996196;28;1448;-77
2023/01/11 01:11:07;;;;;;;;;;;;;;;25.10;34.15;94531.16;4999066;28;1702;-76
2023/01/11 01:16:15;;;;;;;;;;;;;;;25.10;34.41;94539.22;5001102;28;1636;-81
2023/01/11 01:18:41;;;;;;;;;;;;;;;25.12;34.28;94543.28;5026067;28;1657;-82
2023/01/11 01:21:06;;;;;;;;;;;;;;;25.11;34.37;94536.28;4995602;28;1676;-81
2023/01/11 01:23:31;;;;;;;;;;;;;;;25.13;34.28;94536.03;5003526;28;1671;-81
2023/01/11 01:25:56;;;;;;;;;;;;;;;25.14;34.26;94540.38;5006349;28;1898;-82
2023/01/11 01:28:22;;;;;;;;;;;;;;;25.13;34.33;94544.06;5012299;28;1659;-81
2023/01/11 01:30:50;;;;;;;;;;;;;;;25.14;34.42;94545.75;5012540;28;1663;-81
2023/01/11 01:33:16;;;;;;;;;;;;;;;25.15;34.29;94542.00;5013001;28;1821;-80
2023/01/11 01:35:41;;;;;;;;;;;;;;;25.14;34.27;94553.81;5002527;28;1692;-79
2023/01/11 01:38:06;;;;;;;;;;;;;;;25.13;34.24;94552.13;5011461;28;1724;-78
2023/01/11 01:40:31;;;;;;;;;;;;;;;25.15;34.30;94552.75;5012663;28;1670;-76
2023/01/11 01:42:57;;;;;;;;;;;;;;;25.14;34.54;94559.19;5013010;28;1744;-76
2023/01/11 01:45:26;;;;;;;;;;;;;;;25.14;34.38;94559.19;5011343;28;1903;-76
2023/01/11 01:48:01;;;;;;;;;;;;;;;25.14;34.38;94556.50;4991825;28;1683;-76
2023/01/11 01:50:32;;;;;;;;;;;;;;;25.13;34.29;94555.66;5011640;28;1735;-76
2023/01/11 01:53:01;;;;;;;;;;;;;;;25.14;34.26;94545.75;5011576;28;1199;-75
2023/01/11 01:55:29;;;;;;;;;;;;;;;25.14;34.57;94553.81;5012083;28;1667;-76
2023/01/11 01:57:55;;;;;;;;;;;;;;;25.13;34.57;94550.28;5002401;28;1668;-75
2023/01/11 02:00:21;;;;;;;;;;;;;;;25.14;34.46;94551.13;5012122;28;1490;-76
2023/01/11 02:02:47;;;;;;;;;;;;;;;25.14;34.37;94551.13;5000836;28;1732;-76
2023/01/11 02:05:14;;;;;;;;;;;;;;;25.15;34.57;94557.31;4996759;28;1977;-77
2023/01/11 02:07:40;;;;;;;;;;;;;;;25.13;34.48;94555.66;5008925;28;1648;-75
2023/01/11 02:10:09;;;;;;;;;;;;;;;25.13;34.68;94563.72;5000368;28;1716;-76
2023/01/11 02:12:39;;;;;;;;;;;;;;;25.15;34.60;94568.03;5013555;28;1700;-76
2023/01/11 02:15:05;;;;;;;;;;;;;;;25.15;34.32;94571.53;5010039;28;1779;-79
2023/01/11 02:17:30;;;;;;;;;;;;;;;25.15;34.43;94573.41;4991293;28;1168;-77
2023/01/11 02:19:58;;;;;;;;;;;;;;;25.16;34.67;94578.53;4988884;28;1671;-78
2023/01/11 02:22:38;;;;;;;;;;;;;;;25.16;34.37;94586.59;4997285;28;1677;-79
2023/01/11 02:25:22;;;;;;;;;;;;;;;25.16;34.64;94583.91;4993222;28;2001;-79
2023/01/11 02:27:47;;;;;;;;;;;;;;;25.17;34.57;94592.78;4993707;28;1825;-77
2023/01/11 02:30:29;;;;;;;;;;;;;;;25.17;34.80;94590.91;5010771;28;1651;-77
2023/01/11 02:32:57;;;;;;;;;;;;;;;25.16;34.66;94597.34;5004197;28;1775;-78
2023/01/11 02:35:47;;;;;;;;;;;;;;;25.16;34.62;94594.66;5001629;28;1573;-78
2023/01/11 02:38:23;;;;;;;;;;;;;;;25.16;34.67;94589.28;4994044;28;1674;-78
2023/01/11 02:41:01;;;;;;;;;;;;;;;25.16;34.93;94605.38;4999155;28;1622;-77
2023/01/11 02:46:31;;;;;;;;;;;;;;;25.17;34.89;94609.69;5011855;28;1906;-76
2023/01/11 02:49:09;;;;;;;;;;;;;;;25.18;35.00;94611.31;5011814;28;1624;-77
2023/01/11 02:51:49;;;;;;;;;;;;;;;25.16;34.85;94608.06;5006884;28;1727;-77
2023/01/11 02:54:17;;;;;;;;;;;;;;;25.18;34.72;94614.00;4988238;28;1663;-78
2023/01/11 02:56:44;;;;;;;;;;;;;;;25.16;34.77;94613.44;5000421;28;1492;-78
2023/01/11 02:59:12;;;;;;;;;;;;;;;25.18;34.61;94615.88;5009091;28;1439;-78
2023/01/11 03:01:45;;;;;;;;;;;;;;;25.17;34.82;94619.63;4991478;28;1696;-76
2023/01/11 03:04:23;;;;;;;;;;;;;;;25.17;34.73;94616.94;5000289;28;1682;-77
2023/01/11 03:06:50;;;;;;;;;;;;;;;25.16;34.97;94613.44;5001131;28;1930;-77
2023/01/11 03:09:21;;;;;;;;;;;;;;;25.18;35.13;94605.94;5009510;28;1695;-78
2023/01/11 03:14:50;;;;;;;;;;;;;;;25.17;34.95;94615.06;4986522;28;1663;-79
2023/01/11 03:17:40;;;;;;;;;;;;;;;25.17;35.19;94612.38;4985407;28;1708;-76
2023/01/11 03:20:09;;;;;;;;;;;;;;;25.17;35.00;94609.69;4986257;28;1577;-76
2023/01/11 03:22:44;;;;;;;;;;;;;;;25.18;35.23;94608.63;5011048;28;1705;-76
2023/01/11 03:25:19;;;;;;;;;;;;;;;25.18;34.97;94605.94;5000895;28;1906;-78
2023/01/11 03:27:44;;;;;;;;;;;;;;;25.20;35.34;94606.50;4997717;28;1402;-78
2023/01/11 03:30:15;;;;;;;;;;;;;;;25.20;35.28;94611.88;4993078;28;1598;-77
2023/01/11 03:32:52;;;;;;;;;;;;;;;25.20;35.06;94611.88;4998472;28;1559;-78
2023/01/11 03:35:18;;;;;;;;;;;;;;;25.20;35.10;94606.50;4996079;28;1570;-78
2023/01/11 03:37:49;;;;;;;;;;;;;;;25.20;35.17;94614.56;5005927;28;1675;-77
2023/01/11 03:40:25;;;;;;;;;;;;;;;25.20;35.23;94619.94;4989360;28;1763;-77
2023/01/11 03:43:12;;;;;;;;;;;;;;;25.19;35.01;94620.16;4996140;28;856;-77
2023/01/11 03:45:43;;;;;;;;;;;;;;;25.19;35.23;94623.69;5011018;28;1958;-77
2023/01/11 03:48:11;;;;;;;;;;;;;;;25.20;35.08;94625.31;4981191;28;1689;-78
2023/01/11 03:50:36;;;;;;;;;;;;;;;25.21;35.11;94621.56;4998103;28;1732;-77
2023/01/11 03:53:04;;;;;;;;;;;;;;;25.21;35.09;94621.56;5007134;28;1731;-77
2023/01/11 03:55:32;;;;;;;;;;;;;;;25.21;34.97;94620.75;5011696;28;1837;-79
2023/01/11 03:57:58;;;;;;;;;;;;;;;25.21;35.05;94620.75;4995805;28;1721;-79
2023/01/11 04:00:24;;;;;;;;;;;;;;;25.19;35.37;94623.69;4995599;28;1762;-80
2023/01/11 04:02:52;;;;;;;;;;;;;;;25.19;35.26;94623.69;4987537;28;1789;-76
2023/01/11 04:05:18;;;;;;;;;;;;;;;25.17;35.13;94623.09;4993123;28;1923;-73
2023/01/11 04:07:43;;;;;;;;;;;;;;;25.14;35.28;94626.28;4993492;28;1733;-76
2023/01/11 04:10:08;;;;;;;;;;;;;;;25.19;34.79;94634.44;5026398;28;1709;-76
2023/01/11 04:12:34;;;;;;;;;;;;;;;25.20;34.82;94633.34;4995265;28;1697;-77
2023/01/11 04:15:01;;;;;;;;;;;;;;;25.20;35.17;94636.03;4988560;28;1677;-79
2023/01/11 04:17:27;;;;;;;;;;;;;;;24.32;25.24;94642.72;5002145;28;1827;-73
2023/01/11 04:19:52;;;;;;;;;;;;;;;22.38;25.56;94645.03;4997146;28;1648;-73
2023/01/11 04:22:17;;;;;;;;;;;;;;;21.23;26.57;94658.94;5010426;28;1563;-73
2023/01/11 04:24:43;;;;;;;;;;;;;;;20.66;26.60;94661.59;5011534;28;1802;-73
2023/01/11 04:27:08;;;;;;;;;;;;;;;20.24;27.16;94663.03;4995048;28;1890;-73
2023/01/11 04:29:33;;;;;;;;;;;;;;;19.93;27.57;94667.22;5004565;28;1659;-73
2023/01/11 04:31:58;;;;;;;;;;;;;;;19.59;27.47;94664.81;5011958;28;1468;-72
2023/01/11 04:34:24;;;;;;;;;;;;;;;19.38;27.56;94671.19;5003789;28;1461;-72
2023/01/11 04:36:49;;;;;;;;;;;;;;;19.26;27.76;94665.66;4983411;28;1603;-70
2023/01/11 04:39:14;;;;;;;;;;;;;;;19.06;27.91;94665.66;4984542;28;1574;-73
2023/01/11 04:44:23;;;;;;;;;;;;;;;18.83;28.21;94676.69;4993533;28;733;-73
2023/01/11 04:46:49;;;;;;;;;;;;;;;18.73;28.16;94673.59;4994215;28;1961;-71
2023/01/11 04:49:14;;;;;;;;;;;;;;;18.61;28.27;94679.50;4994276;28;1524;-72
2023/01/11 04:51:39;;;;;;;;;;;;;;;18.49;28.12;94686.41;5010668;28;2246;-73
2023/01/11 04:54:05;;;;;;;;;;;;;;;18.20;29.52;94682.22;5010739;28;1715;-73
2023/01/11 04:56:30;;;;;;;;;;;;;;;18.59;29.88;94670.09;5002389;28;1651;-73
2023/01/11 04:58:55;;;;;;;;;;;;;;;19.59;29.97;94686.94;5004205;28;1629;-69
2023/01/11 05:01:21;;;;;;;;;;;;;;;20.43;29.33;94683.44;4997535;28;1707;-72
2023/01/11 05:03:46;;;;;;;;;;;;;;;21.10;29.30;94689.19;5013531;28;1701;-73
2023/01/11 05:06:11;;;;;;;;;;;;;;;21.61;29.45;94695.38;5005511;28;1902;-73
2023/01/11 05:08:37;;;;;;;;;;;;;;;21.87;29.66;94694.31;4994714;28;1421;-80
2023/01/11 05:11:03;;;;;;;;;;;;;;;21.40;27.30;94695.75;4992815;28;1676;-73
2023/01/11 05:13:40;;;;;;;;;;;;;;;21.37;28.91;94704.22;4993076;28;1570;-73
2023/01/11 05:16:08;;;;;;;;;;;;;;;21.79;29.50;94703.41;4993682;28;1733;-75
2023/01/11 05:18:34;;;;;;;;;;;;;;;22.10;29.61;94706.19;4999007;28;1441;-72
2023/01/11 05:21:00;;;;;;;;;;;;;;;22.33;29.62;94703.69;4992658;28;1549;-72
2023/01/11 05:23:25;;;;;;;;;;;;;;;22.47;29.97;94711.56;4981386;28;1683;-72
2023/01/11 05:25:50;;;;;;;;;;;;;;;22.55;30.09;94706.72;4991587;28;1907;-72
2023/01/11 05:28:15;;;;;;;;;;;;;;;22.64;30.15;94705.38;4990339;28;922;-72
2023/01/11 05:30:41;;;;;;;;;;;;;;;22.72;29.87;94708.78;4990225;28;1325;-73
2023/01/11 05:33:06;;;;;;;;;;;;;;;22.80;29.95;94709.28;4988189;28;1019;-72
2023/01/11 05:35:31;;;;;;;;;;;;;;;22.85;30.11;94713.94;4987866;28;1239;-70
2023/01/11 05:37:56;;;;;;;;;;;;;;;22.92;29.99;94713.84;4993460;28;864;-71
2023/01/11 05:40:22;;;;;;;;;;;;;;;22.97;30.09;94714.84;4992941;28;886;-72
2023/01/11 05:42:47;;;;;;;;;;;;;;;23.03;29.86;94719.28;4991671;28;918;-72
2023/01/11 05:45:27;;;;;;;;;;;;;;;23.07;30.09;94723.13;4981926;28;1914;-72
2023/01/11 05:47:53;;;;;;;;;;;;;;;23.11;29.99;94732.34;4991285;28;986;-71
2023/01/11 05:50:18;;;;;;;;;;;;;;;23.17;29.97;94730.63;4992021;28;819;-71
2023/01/11 05:52:43;;;;;;;;;;;;;;;23.22;29.73;94728.03;4991675;28;1192;-74
2023/01/11 05:55:09;;;;;;;;;;;;;;;23.28;29.82;94731.66;4989915;28;1244;-73
2023/01/11 05:57:34;;;;;;;;;;;;;;;23.31;29.89;94732.03;4981516;28;1435;-72
2023/01/11 05:59:59;;;;;;;;;;;;;;;23.33;29.84;94729.94;4992440;28;922;-72
2023/01/11 06:02:24;;;;;;;;;;;;;;;23.33;29.69;94745.19;4992772;28;910;-73
2023/01/11 06:04:50;;;;;;;;;;;;;;;23.22;29.81;94745.97;4992878;28;913;-72
2023/01/11 06:07:15;;;;;;;;;;;;;;;23.09;29.97;94755.00;4987853;28;1902;-73
2023/01/11 06:09:40;;;;;;;;;;;;;;;22.92;30.45;94759.34;4987669;28;1102;-72
2023/01/11 06:12:06;;;;;;;;;;;;;;;22.87;30.50;94762.69;4991346;28;1189;-73
2023/01/11 06:14:31;;;;;;;;;;;;;;;22.80;30.71;94761.97;4992592;28;866;-73
2023/01/11 06:16:56;;;;;;;;;;;;;;;22.76;30.75;94771.47;4991322;28;1557;-73
2023/01/11 06:19:21;;;;;;;;;;;;;;;22.78;30.83;94775.53;4983663;28;1183;-73
2023/01/11 06:21:47;;;;;;;;;;;;;;;22.78;30.84;94785.44;4990732;28;1421;-73
2023/01/11 06:24:12;;;;;;;;;;;;;;;22.80;30.70;94786.03;4992832;28;941;-73
2023/01/11 06:26:37;;;;;;;;;;;;;;;22.86;30.75;94798.50;4991268;28;1907;-73
2023/01/11 06:29:02;;;;;;;;;;;;;;;22.86;30.80;94791.28;4992455;28;808;-74
2023/01/11 06:31:28;;;;;;;;;;;;;;;22.88;30.62;94794.56;4982867;28;1221;-74
2023/01/11 06:33:53;;;;;;;;;;;;;;;22.93;30.86;94798.41;4992599;28;879;-73
2023/01/11 06:36:18;;;;;;;;;;;;;;;22.93;30.61;94793.06;4991282;28;1241;-74
2023/01/11 06:38:43;;;;;;;;;;;;;;;22.92;30.96;94800.28;4992540;28;1000;-74
2023/01/11 06:41:10;;;;;;;;;;;;;;;22.95;30.64;94797.19;4989469;28;924;-72
2023/01/11 06:43:36;;;;;;;;;;;;;;;22.96;30.60;94790.78;4985130;28;1197;-74
2023/01/11 06:46:02;;;;;;;;;;;;;;;22.99;30.64;94793.00;4993043;28;1910;-74
2023/01/11 06:48:27;;;;;;;;;;;;;;;23.01;30.71;94806.97;4994187;28;909;-73
2023/01/11 06:50:54;;;;;;;;;;;;;;;23.00;30.74;94808.03;4991719;28;839;-74
2023/01/11 06:53:19;;;;;;;;;;;;;;;23.01;30.66;94806.97;4983774;28;1118;-72
2023/01/11 06:55:48;;;;;;;;;;;;;;;23.03;30.71;94814.78;4992354;28;1045;-72
2023/01/11 06:58:13;;;;;;;;;;;;;;;23.01;30.72;94809.66;4992113;28;839;-74
2023/01/11 07:00:38;;;;;;;;;;;;;;;22.99;30.77;94809.03;4990826;28;1256;-74
2023/01/11 07:03:04;;;;;;;;;;;;;;;22.97;30.69;94821.84;4992352;28;867;-74
2023/01/11 07:05:34;;;;;;;;;;;;;;;22.97;30.76;94824.53;4984047;28;1903;-74
2023/01/11 07:07:59;;;;;;;;;;;;;;;23.01;30.65;94827.56;4994891;28;1172;-73
2023/01/11 07:10:24;;;;;;;;;;;;;;;22.97;30.78;94835.22;4996608;28;800;-74
2023/01/11 07:12:50;;;;;;;;;;;;;;;22.98;30.68;94834.16;4994503;28;1170;-73
2023/01/11 07:15:16;;;;;;;;;;;;;;;22.95;30.79;94839.97;5023257;28;1415;-71
2023/01/11 07:17:41;;;;;;;;;;;;;;;22.93;30.88;94838.53;4991380;28;1009;-74
2023/01/11 07:20:06;;;;;;;;;;;;;;;22.90;31.05;94843.28;4995598;28;902;-74
2023/01/11 07:22:33;;;;;;;;;;;;;;;22.88;30.90;94839.19;4996412;28;895;-74
2023/01/11 07:24:58;;;;;;;;;;;;;;;22.85;30.87;94847.66;5027790;28;1275;-74
2023/01/11 07:27:23;;;;;;;;;;;;;;;22.84;31.04;94846.03;4985124;28;1977;-72
2023/01/11 07:29:48;;;;;;;;;;;;;;;22.85;31.13;94834.28;4995452;28;963;-71
2023/01/11 07:32:14;;;;;;;;;;;;;;;22.84;30.75;94835.34;5027122;28;1323;-72
2023/01/11 07:34:39;;;;;;;;;;;;;;;22.84;30.98;94846.84;5026574;28;1390;-73
2023/01/11 07:37:04;;;;;;;;;;;;;;;22.80;31.21;94855.56;4995604;28;839;-72
2023/01/11 07:39:30;;;;;;;;;;;;;;;22.81;31.08;94854.50;4986422;28;1080;-72
2023/01/11 07:44:39;;;;;;;;;;;;;;;22.76;31.13;94862.38;4995404;28;822;-73
2023/01/11 07:47:04;;;;;;;;;;;;;;;22.76;31.35;94863.19;4995252;28;1938;-73
2023/01/11 07:49:30;;;;;;;;;;;;;;;22.78;31.24;94863.00;4990225;28;1024;-73
2023/01/11 07:51:55;;;;;;;;;;;;;;;22.76;31.36;94859.72;4990090;28;959;-72
2023/01/11 07:54:21;;;;;;;;;;;;;;;22.77;31.39;94867.53;4994745;28;883;-73
2023/01/11 07:56:46;;;;;;;;;;;;;;;22.75;31.29;94874.13;4994677;28;838;-73
2023/01/11 07:59:12;;;;;;;;;;;;;;;22.70;31.42;94880.13;4995037;28;1005;-73
2023/01/11 08:01:37;;;;;;;;;;;;;;;22.72;31.35;94887.94;4985776;28;998;-72
2023/01/11 08:04:02;;;;;;;;;;;;;;;22.70;31.46;94885.47;4994299;28;1266;-72
2023/01/11 08:06:28;;;;;;;;;;;;;;;22.72;31.45;94887.94;5026551;28;1964;-72
2023/01/11 08:08:53;;;;;;;;;;;;;;;22.75;31.47;94898.19;4993790;28;1303;-72
2023/01/11 08:16:57;;;;;;;;;;;;;;;22.82;31.43;94923.00;4994209;28;789;-73
2023/01/11 08:19:22;;;;;;;;;;;;;;;22.85;31.42;94918.06;4994264;28;859;-73
2023/01/11 08:21:48;;;;;;;;;;;;;;;22.90;31.24;94917.38;4995165;28;863;-73
2023/01/11 08:24:14;;;;;;;;;;;;;;;22.87;31.15;94929.31;4986037;28;1091;-73
2023/01/11 08:26:39;;;;;;;;;;;;;;;22.87;31.17;94925.84;4994104;28;1891;-72
2023/01/11 08:29:04;;;;;;;;;;;;;;;22.90;31.13;94934.22;4994544;28;866;-72
2023/01/11 08:31:29;;;;;;;;;;;;;;;22.89;31.30;94937.13;5025201;28;1261;-72
2023/01/11 08:33:55;;;;;;;;;;;;;;;22.88;31.19;94938.16;4993533;28;875;-72
2023/01/11 08:36:20;;;;;;;;;;;;;;;22.88;30.98;94943.50;4984950;28;1251;-72
2023/01/11 08:38:45;;;;;;;;;;;;;;;22.89;31.35;94942.50;4993029;28;1386;-72
2023/01/11 08:41:11;;;;;;;;;;;;;;;22.96;31.16;94942.44;4991846;28;1237;-72
2023/01/11 08:43:40;;;;;;;;;;;;;;;22.97;31.34;94942.25;4992421;28;1252;-72
2023/01/11 08:46:05;;;;;;;;;;;;;;;22.93;31.22;94943.66;4989754;28;1962;-70
2023/01/11 08:48:31;;;;;;;;;;;;;;;22.96;31.11;94955.81;4988291;28;968;-73
2023/01/11 08:50:56;;;;;;;;;;;;;;;23.02;31.00;94957.59;4994070;28;812;-71
2023/01/11 08:53:21;;;;;;;;;;;;;;;23.00;31.12;94957.84;4993824;28;1020;-72
2023/01/11 08:55:47;;;;;;;;;;;;;;;23.02;31.03;94958.41;4993358;28;799;-72
2023/01/11 08:58:12;;;;;;;;;;;;;;;23.08;31.06;94962.91;4982733;28;1181;-72
2023/01/11 09:00:37;;;;;;;;;;;;;;;23.08;31.13;94959.38;4992102;28;1356;-72
2023/01/11 09:03:03;;;;;;;;;;;;;;;23.05;31.03;94963.34;4993010;28;847;-72
2023/01/11 09:05:28;;;;;;;;;;;;;;;23.07;31.15;94961.25;4993629;28;1898;-71
2023/01/11 09:07:54;;;;;;;;;;;;;;;23.10;31.07;94966.16;4993643;28;1028;-72
2023/01/11 09:10:19;;;;;;;;;;;;;;;23.09;30.85;94967.22;4983669;28;1089;-73
2023/01/11 09:12:44;;;;;;;;;;;;;;;23.10;31.04;94966.16;4993423;28;957;-72
2023/01/11 09:15:10;;;;;;;;;;;;;;;23.10;30.79;94963.47;4993481;28;892;-73
2023/01/11 09:17:35;;;;;;;;;;;;;;;23.10;30.90;94962.66;4992924;28;843;-72
2023/01/11 09:20:00;;;;;;;;;;;;;;;23.13;31.07;94965.72;4990744;28;1173;-71
2023/01/11 09:22:26;;;;;;;;;;;;;;;23.13;31.04;94963.03;4983616;28;1355;-74
2023/01/11 09:24:51;;;;;;;;;;;;;;;23.15;30.93;94960.16;4993749;28;803;-72
2023/01/11 09:27:17;;;;;;;;;;;;;;;23.17;30.71;94959.91;4993375;28;1910;-73
2023/01/11 09:29:43;;;;;;;;;;;;;;;23.17;30.86;94958.06;5023820;28;1176;-73
2023/01/11 09:32:08;;;;;;;;;;;;;;;23.19;30.79;94964.00;4985233;28;1103;-69
2023/01/11 09:34:34;;;;;;;;;;;;;;;23.19;31.02;94961.31;4990977;28;1206;-73
2023/01/11 09:37:02;;;;;;;;;;;;;;;23.21;30.94;94966.47;4993962;28;839;-73
2023/01/11 09:39:28;;;;;;;;;;;;;;;23.20;30.74;94964.84;4991819;28;1148;-73
2023/01/11 09:41:55;;;;;;;;;;;;;;;23.20;30.73;94962.97;5024190;28;1492;-73
2023/01/11 09:44:24;;;;;;;;;;;;;;;23.17;30.99;94965.25;4983730;28;1044;-72
2023/01/11 09:46:54;;;;;;;;;;;;;;;23.21;30.90;94969.97;4991764;28;1981;-73
2023/01/11 09:49:23;;;;;;;;;;;;;;;23.19;31.04;94966.69;4991101;28;1248;-73
2023/01/11 09:51:50;;;;;;;;;;;;;;;23.22;30.80;94966.22;4992868;28;1015;-73
2023/01/11 09:54:23;;;;;;;;;;;;;;;23.22;30.88;94968.09;4987066;28;1181;-73
2023/01/11 09:56:59;;;;;;;;;;;;;;;23.24;30.93;94971.38;4987515;28;1087;-73
2023/01/11 09:59:33;;;;;;;;;;;;;;;23.23;30.75;94972.44;4992623;28;878;-73
2023/01/11 10:02:06;;;;;;;;;;;;;;;23.23;30.93;94969.75;4992652;28;879;-72
2023/01/11 10:04:40;;;;;;;;;;;;;;;23.25;30.76;94975.69;5024032;28;1286;-74
2023/01/11 10:07:07;;;;;;;;;;;;;;;23.24;30.83;94971.38;4983150;28;1968;-73
2023/01/11 10:09:55;;;;;;;;;;;;;;;23.22;30.98;94968.91;4991609;28;835;-73
2023/01/11 10:12:36;;;;;;;;;;;;;;;23.24;30.96;94977.53;4986812;28;1103;-73
2023/01/11 10:15:20;;;;;;;;;;;;;;;23.21;30.96;94982.53;4992724;28;827;-74
2023/01/11 10:17:48;;;;;;;;;;;;;;;23.25;30.93;94978.34;4982672;28;1013;-72
2023/01/11 10:20:19;;;;;;;;;;;;;;;23.24;30.87;94977.53;4992122;28;1042;-71
2023/01/11 10:22:46;;;;;;;;;;;;;;;23.25;31.01;94973.00;4992099;28;1009;-71
2023/01/11 10:25:13;;;;;;;;;;;;;;;23.26;30.99;94971.97;4991815;28;1938;-70
2023/01/11 10:27:41;;;;;;;;;;;;;;;23.22;30.82;94968.91;4992199;28;823;-72
2023/01/11 10:30:34;;;;;;;;;;;;;;;23.26;30.92;94970.13;4982836;28;1342;-75
2023/01/11 10:33:33;;;;;;;;;;;;;;;23.27;30.80;94976.28;5022706;28;1300;-72
2023/01/11 10:36:31;;;;;;;;;;;;;;;23.25;31.00;94973.00;4988403;28;1338;-73
2023/01/11 10:39:09;;;;;;;;;;;;;;;23.26;30.99;94971.97;5023250;28;1313;-72
2023/01/11 10:41:47;;;;;;;;;;;;;;;23.26;30.90;94963.94;4982172;28;1058;-73
2023/01/11 10:44:18;;;;;;;;;;;;;;;23.30;30.67;94970.47;4991905;28;914;-73
2023/01/11 10:46:47;;;;;;;;;;;;;;;23.28;30.84;94959.16;4990550;28;1896;-73
2023/01/11 10:49:32;;;;;;;;;;;;;;;23.30;30.72;94954.41;4991945;28;844;-72
2023/01/11 10:52:03;;;;;;;;;;;;;;;23.26;31.01;94954.06;4982724;28;1367;-73
2023/01/11 10:54:35;;;;;;;;;;;;;;;23.29;30.76;94948.25;4991596;28;882;-72
2023/01/11 10:57:19;;;;;;;;;;;;;;;23.29;30.93;94952.78;4992061;28;837;-73
2023/01/11 10:59:55;;;;;;;;;;;;;;;23.30;30.95;94954.41;4991724;28;870;-73
2023/01/11 11:02:20;;;;;;;;;;;;;;;23.27;30.80;94955.69;4988011;28;891;-73
2023/01/11 11:04:57;;;;;;;;;;;;;;;23.30;30.99;94949.06;4985845;28;1159;-73
2023/01/11 11:07:25;;;;;;;;;;;;;;;23.27;31.01;94952.19;4991691;28;1898;-73
2023/01/11 11:09:50;;;;;;;;;;;;;;;23.28;30.86;94957.34;4991506;28;918;-73
2023/01/11 11:12:28;;;;;;;;;;;;;;;23.27;31.00;94957.53;4990517;28;1296;-73
2023/01/11 11:14:56;;;;;;;;;;;;;;;23.26;30.93;94956.72;4982314;28;1174;-73
2023/01/11 11:17:29;;;;;;;;;;;;;;;23.26;30.92;94964.75;4991296;28;924;-73
2023/01/11 11:19:56;;;;;;;;;;;;;;;23.31;31.14;94956.06;5023074;28;1225;-73
2023/01/11 11:22:21;;;;;;;;;;;;;;;23.33;30.79;94957.47;4991544;28;946;-72
2023/01/11 11:25:02;;;;;;;;;;;;;;;23.30;30.88;94960.59;4991335;28;800;-72
2023/01/11 11:27:32;;;;;;;;;;;;;;;23.29;31.00;94963.50;5016639;28;1973;-73
2023/01/11 11:29:57;;;;;;;;;;;;;;;23.31;31.09;94961.44;4991726;28;1425;-72
2023/01/11 11:32:28;;;;;;;;;;;;;;;23.27;31.11;94970.94;4991099;28;953;-72
2023/01/11 11:34:54;;;;;;;;;;;;;;;23.31;30.90;94972.94;4991563;28;1247;-73
2023/01/11 11:37:30;;;;;;;;;;;;;;;23.35;30.91;94967.94;4982459;28;968;-73
2023/01/11 11:39:55;;;;;;;;;;;;;;;23.33;30.96;94964.66;4991302;28;879;-73
2023/01/11 11:42:21;;;;;;;;;;;;;;;23.30;31.02;94970.47;4991914;28;850;-73
2023/01/11 11:45:13;;;;;;;;;;;;;;;23.35;30.52;94973.31;5023158;28;1332;-73
2023/01/11 11:47:38;;;;;;;;;;;;;;;23.34;30.87;94974.34;4987583;28;2059;-69
2023/01/11 11:50:19;;;;;;;;;;;;;;;23.35;30.85;94978.66;4981836;28;1325;-73
2023/01/11 11:52:48;;;;;;;;;;;;;;;23.35;30.95;94973.31;4993738;28;911;-73
2023/01/11 11:55:14;;;;;;;;;;;;;;;23.28;30.85;94978.75;4994587;28;826;-73
2023/01/11 11:57:40;;;;;;;;;;;;;;;23.32;31.00;94979.91;4995241;28;871;-72
2023/01/11 12:00:13;;;;;;;;;;;;;;;23.37;30.89;94975.75;4986395;28;1168;-73
2023/01/11 12:02:44;;;;;;;;;;;;;;;23.35;30.90;94979.47;4994217;28;947;-73
2023/01/11 12:05:09;;;;;;;;;;;;;;;23.33;30.79;94972.69;4994508;28;791;-72
2023/01/11 12:07:36;;;;;;;;;;;;;;;23.33;30.98;94978.88;5026024;28;1988;-72
2023/01/11 12:10:04;;;;;;;;;;;;;;;23.35;30.97;94973.31;4994124;28;1064;-73
2023/01/11 12:12:30;;;;;;;;;;;;;;;23.35;30.84;94978.66;4985486;28;1039;-73
2023/01/11 12:15:05;;;;;;;;;;;;;;;23.31;30.83;94972.94;4993043;28;1381;-71
2023/01/11 12:17:30;;;;;;;;;;;;;;;23.33;30.80;94975.38;4993848;28;863;-73
2023/01/11 12:19:55;;;;;;;;;;;;;;;23.33;30.92;94978.88;4994769;28;925;-73
2023/01/11 12:22:22;;;;;;;;;;;;;;;23.29;30.93;94974.19;4989513;28;1127;-73
2023/01/11 12:25:01;;;;;;;;;;;;;;;23.33;30.94;94976.19;4989817;28;1093;-73
2023/01/11 12:27:36;;;;;;;;;;;;;;;23.32;30.97;94968.41;4994259;28;1977;-72
2023/01/11 12:30:02;;;;;;;;;;;;;;;23.33;30.97;94975.38;4993498;28;1374;-71
2023/01/11 12:32:39;;;;;;;;;;;;;;;23.30;30.98;94981.19;4994314;28;866;-73
2023/01/11 12:35:04;;;;;;;;;;;;;;;23.31;31.09;94982.84;4983381;28;1205;-72
2023/01/11 12:37:48;;;;;;;;;;;;;;;23.30;30.98;94987.34;4993604;28;1224;-73
2023/01/11 12:40:13;;;;;;;;;;;;;;;23.28;31.07;94993.97;4995336;28;916;-73
2023/01/11 12:42:54;;;;;;;;;;;;;;;23.33;30.97;94988.75;4994718;28;819;-72
2023/01/11 12:45:34;;;;;;;;;;;;;;;23.33;31.02;94988.75;4986387;28;1906;-73
2023/01/11 12:48:18;;;;;;;;;;;;;;;23.29;31.05;94995.63;4993883;28;1310;-73
2023/01/11 12:50:46;;;;;;;;;;;;;;;23.27;30.99;94989.66;4994652;28;840;-73
2023/01/11 12:53:21;;;;;;;;;;;;;;;23.29;30.87;94990.25;4994933;28;838;-73
2023/01/11 12:56:02;;;;;;;;;;;;;;;23.27;31.06;94998.50;4992150;28;1178;-71
2023/01/11 12:58:35;;;;;;;;;;;;;;;23.33;30.94;94996.78;4989670;28;987;-73
2023/01/11 13:01:26;;;;;;;;;;;;;;;23.30;31.00;95013.31;4993429;28;878;-73
2023/01/11 13:03:57;;;;;;;;;;;;;;;23.24;31.16;95012.34;4992333;28;1269;-71
2023/01/11 13:06:43;;;;;;;;;;;;;;;23.26;31.05;95004.09;4993248;28;1970;-73
2023/01/11 13:09:28;;;;;;;;;;;;;;;23.29;30.91;95007.13;4982191;28;1246;-73
2023/01/11 13:12:17;;;;;;;;;;;;;;;23.28;31.14;95007.34;4992923;28;1003;-73
2023/01/11 13:14:57;;;;;;;;;;;;;;;23.28;30.99;95010.03;4993084;28;1391;-73
2023/01/11 13:17:28;;;;;;;;;;;;;;;23.30;31.04;95015.97;4993089;28;780;-72
2023/01/11 13:20:03;;;;;;;;;;;;;;;23.32;31.01;95027.28;4983964;28;1094;-74
2023/01/11 13:22:31;;;;;;;;;;;;;;;23.26;31.06;95018.28;4992781;28;867;-73
2023/01/11 13:24:58;;;;;;;;;;;;;;;23.28;30.87;95026.94;4993641;28;883;-73
2023/01/11 13:27:23;;;;;;;;;;;;;;;23.29;30.87;95022.38;4992969;28;1906;-72
2023/01/11 13:29:59;;;;;;;;;;;;;;;23.29;30.93;95022.38;5023917;28;1238;-71
2023/01/11 13:32:26;;;;;;;;;;;;;;;23.30;31.04;95024.00;4987800;28;1010;-72
2023/01/11 13:34:54;;;;;;;;;;;;;;;23.28;30.87;95016.22;4993095;28;1242;-73
2023/01/11 13:37:20;;;;;;;;;;;;;;;23.32;30.84;95021.94;5024668;28;1208;-73
2023/01/11 13:39:45;;;;;;;;;;;;;;;23.31;30.95;95026.47;4993568;28;878;-73